Time;durP1;ratioP1;P1;durP2;ratioP2;P2;SDS_P1;SDS_P2;PMS_P1;PMS_P2;Temp;Humidity;BMP_temperature;BMP_pressure;BME280_temperature;BME280_humidity;BME280_pressure;Samples;Min_cycle;Max_cycle;Signal;HPM_P1;HPM_P2
2023/10/16 07:01:28;;;;;;;0.60;0.60;;;8.00;99.90;12.00;102011.00;;;;6040926;22;1518399;-67
2023/10/16 07:04:00;;;;;;;0.80;0.80;;;8.20;99.90;12.30;102029.00;;;;6091685;23;20524;-67
2023/10/16 07:06:32;;;;;;;0.80;0.80;;;8.40;99.90;12.60;102017.00;;;;6073908;23;20160;-67
2023/10/16 07:09:05;;;;;;;0.87;0.87;;;8.60;99.90;12.50;102025.00;;;;6097981;23;20180;-67
2023/10/16 07:11:42;;;;;;;0.70;0.70;;;8.70;99.90;11.40;102025.00;;;;6122826;23;20183;-67
2023/10/16 07:14:23;;;;;;;0.77;0.77;;;8.30;99.90;10.70;102023.00;;;;6074125;23;20164;-70
2023/10/16 07:16:53;;;;;;;0.63;0.63;;;7.90;99.90;11.50;102003.00;;;;6098289;23;20557;-67
2023/10/16 07:19:31;;;;;;;0.70;0.70;;;7.90;99.90;11.70;102014.00;;;;6073021;23;20165;-67
2023/10/16 07:22:00;;;;;;;29.07;26.07;;;8.00;99.90;12.30;102008.00;;;;6123112;23;20171;-67
2023/10/16 07:24:40;;;;;;;0.70;0.70;;;8.30;99.90;12.90;102018.00;;;;6097204;23;20172;-67
2023/10/16 07:27:12;;;;;;;0.90;0.90;;;8.90;99.90;11.50;102018.00;;;;6096792;23;20165;-64
2023/10/16 07:29:49;;;;;;;1.67;1.57;;;8.60;99.90;13.00;102015.00;;;;6097666;23;20153;-69
2023/10/16 07:32:37;;;;;;;1.43;1.43;;;8.90;99.90;13.40;102026.00;;;;6095650;23;20214;-69
2023/10/16 07:35:17;;;;;;;0.70;0.70;;;9.40;99.90;14.00;102030.00;;;;6074974;23;20157;-69
2023/10/16 07:37:53;;;;;;;0.93;0.93;;;9.90;99.90;14.40;102040.00;;;;6096976;23;20184;-69
2023/10/16 07:40:20;;;;;;;0.90;0.90;;;10.40;99.90;14.40;102002.00;;;;6096868;23;20157;-70
2023/10/16 07:42:52;;;;;;;1.10;1.10;;;10.50;99.90;14.80;102030.00;;;;6096481;23;20859;-69
2023/10/16 07:45:44;;;;;;;0.87;0.87;;;10.80;99.90;14.70;102003.00;;;;6097924;23;20249;-70
2023/10/16 07:48:44;;;;;;;0.70;0.70;;;10.90;99.90;15.20;102043.00;;;;6098042;23;20235;-69
2023/10/16 07:51:59;;;;;;;0.80;0.80;;;11.20;99.90;15.60;102045.00;;;;6096772;23;20147;-67
2023/10/16 07:55:07;;;;;;;0.70;0.70;;;11.50;99.90;16.00;102046.00;;;;6097714;23;20152;-67
2023/10/16 07:58:33;;;;;;;0.90;0.90;;;11.80;99.90;15.60;102049.00;;;;6098437;23;20522;-67
2023/10/16 08:03:37;;;;;;;1.00;1.00;;;12.00;99.90;16.10;102047.00;;;;6096781;23;20160;-67
2023/10/16 08:06:12;;;;;;;0.90;0.90;;;12.20;99.90;16.10;102044.00;;;;6122680;23;20164;-67
2023/10/16 08:08:48;;;;;;;0.80;0.80;;;12.20;99.90;16.50;102041.00;;;;6097245;23;20612;-67
2023/10/16 08:11:19;;;;;;;0.80;0.80;;;12.40;99.90;16.70;102043.00;;;;6097331;23;20140;-69
2023/10/16 08:17:17;;;;;;;0.80;0.80;;;13.30;99.90;17.90;102053.00;;;;6097112;23;20197;-67
2023/10/16 08:19:53;;;;;;;0.70;0.70;;;13.90;99.90;18.10;102062.00;;;;6072870;23;20166;-70
2023/10/16 08:22:43;;;;;;;0.67;0.67;;;14.00;99.90;18.30;102065.00;;;;6120939;23;20152;-72
2023/10/16 08:26:00;;;;;;;0.53;0.53;;;14.30;99.90;18.60;102071.00;;;;6097822;23;20155;-72
2023/10/16 08:29:12;;;;;;;0.60;0.60;;;14.50;99.90;19.60;102076.00;;;;6074177;23;20169;-68
2023/10/16 08:34:52;;;;;;;1.97;1.97;;;15.40;99.90;20.10;102132.00;;;;6121990;23;20211;-70
2023/10/16 08:37:24;;;;;;;0.60;0.60;;;15.60;99.90;20.50;102148.00;;;;6096727;23;20189;-71
2023/10/16 08:39:50;;;;;;;0.53;0.53;;;16.10;99.90;19.80;102159.00;;;;6073319;23;20159;-74
2023/10/16 08:45:39;;;;;;;0.40;0.40;;;15.80;99.90;20.10;102133.00;;;;6094444;23;20179;-75
2023/10/16 08:49:08;;;;;;;1.23;0.67;;;15.60;99.90;20.70;102133.00;;;;6097749;23;20170;-75
2023/10/16 08:52:11;;;;;;;1.27;1.27;;;16.00;99.90;19.80;102179.00;;;;6096824;23;20156;-70
2023/10/16 08:57:20;;;;;;;0.20;0.20;;;15.30;99.90;19.10;102178.00;;;;6099743;23;20182;-72
2023/10/16 09:00:15;;;;;;;0.20;0.20;;;15.00;99.90;19.10;102169.00;;;;6096193;23;20545;-68
2023/10/16 09:03:05;;;;;;;0.17;0.17;;;15.30;99.90;19.80;102173.00;;;;6074169;23;20545;-70
2023/10/16 09:05:37;;;;;;;0.50;0.50;;;15.20;99.90;20.80;102170.00;;;;6074235;23;20175;-68
2023/10/16 09:08:41;;;;;;;0.20;0.20;;;16.00;99.90;18.60;102181.00;;;;6073791;23;20636;-68
2023/10/16 09:11:10;;;;;;;0.20;0.20;;;15.40;99.90;16.80;102193.00;;;;6078473;23;20159;-76
2023/10/16 09:13:36;;;;;;;0.30;0.30;;;14.40;99.90;17.60;102143.00;;;;6097137;23;20178;-74
2023/10/16 09:16:46;;;;;;;0.10;0.10;;;14.10;99.90;19.10;102121.00;;;;6095741;23;20473;-71
2023/10/16 09:19:48;;;;;;;1.07;1.07;;;14.50;99.90;20.70;102129.00;;;;6099686;23;20208;-72
2023/10/16 09:22:55;;;;;;;0.20;0.20;;;15.80;99.90;21.50;102152.00;;;;6073131;23;20168;-69
2023/10/16 09:25:23;;;;;;;0.10;0.10;;;16.60;99.90;20.50;102139.00;;;;6094890;23;20518;-69
2023/10/16 09:28:32;;;;;;;0.10;0.10;;;16.60;99.90;18.00;102195.00;;;;6072008;23;20167;-70
2023/10/16 09:31:19;;;;;;;0.10;0.10;;;15.60;99.90;17.70;102184.00;;;;6096178;23;20582;-69
2023/10/16 09:34:11;;;;;;;0.20;0.20;;;14.40;99.90;18.50;102185.00;;;;6096252;23;20639;-68
2023/10/16 09:36:46;;;;;;;0.10;0.10;;;14.30;99.90;18.40;102187.00;;;;6095857;23;20251;-69
2023/10/16 09:39:52;;;;;;;0.20;0.20;;;14.50;99.90;18.90;102171.00;;;;6073695;23;20191;-67
2023/10/16 09:42:34;;;;;;;0.27;0.27;;;14.70;99.90;18.00;102178.00;;;;6096453;23;20162;-68
2023/10/16 09:45:23;;;;;;;0.50;0.50;;;14.70;99.90;19.30;102153.00;;;;6072939;23;20158;-67
2023/10/16 09:47:57;;;;;;;0.10;0.10;;;14.70;99.90;17.90;102176.00;;;;6097149;23;20235;-67
2023/10/16 09:50:36;;;;;;;0.27;0.27;;;14.70;99.90;19.50;102135.00;;;;6094367;23;20243;-65
2023/10/16 09:53:57;;;;;;;0.20;0.20;;;15.20;99.90;20.70;102146.00;;;;6096758;23;20189;-66
2023/10/16 10:01:06;;;;;;;0.20;0.20;;;16.30;99.90;20.90;102153.00;;;;6100615;23;20497;-66
2023/10/16 10:04:18;;;;;;;0.20;0.20;;;16.70;99.90;20.00;102160.00;;;;6095461;23;20183;-66
2023/10/16 10:06:54;;;;;;;0.10;0.10;;;16.40;99.90;20.70;102158.00;;;;6096822;23;20148;-65
2023/10/16 10:09:34;;;;;;;0.30;0.30;;;16.30;99.90;20.40;102132.00;;;;6072363;23;20589;-65
2023/10/16 10:12:51;;;;;;;0.20;0.20;;;16.50;99.90;20.20;102156.00;;;;6098915;23;20202;-65
2023/10/16 10:19:10;;;;;;;0.10;0.10;;;15.90;99.90;21.00;102135.00;;;;6098174;23;20164;-66
2023/10/16 10:36:43;;;;;;;0.10;0.10;;;14.40;99.90;18.70;102155.00;;;;5151434;27;20197;-66
2023/10/16 10:42:10;;;;;;;0.10;0.10;;;15.70;99.90;21.00;102125.00;;;;5149500;27;20198;-66
2023/10/16 10:44:39;;;;;;;0.10;0.10;;;16.40;99.90;20.70;102122.00;;;;5108345;27;20188;-66
2023/10/16 10:47:21;;;;;;;0.53;0.53;;;16.50;99.90;21.60;102111.00;;;;5110703;27;20183;-66
2023/10/16 10:50:12;;;;;;;0.20;0.20;;;17.10;99.90;22.50;102083.00;;;;5127678;27;20227;-66
2023/10/16 10:53:08;;;;;;;0.10;0.10;;;17.70;99.90;22.50;102075.00;;;;5132726;27;20201;-66
2023/10/16 10:56:07;;;;;;;1.07;1.07;;;17.90;99.90;21.20;102116.00;;;;5150442;27;20267;-66
2023/10/16 10:58:38;;;;;;;0.20;0.20;;;17.40;99.90;21.00;102128.00;;;;5127090;27;20310;-67
2023/10/16 11:01:34;;;;;;;1.20;0.47;;;17.00;99.90;20.70;102134.00;;;;5151345;27;20179;-66
2023/10/16 11:04:21;;;;;;;0.40;0.40;;;16.70;99.90;20.50;102136.00;;;;5120354;27;20211;-65
2023/10/16 11:07:00;;;;;;;0.10;0.10;;;16.30;99.90;18.80;102159.00;;;;5130526;27;20259;-64
2023/10/16 11:09:57;;;;;;;0.20;0.20;;;15.40;99.90;19.70;102152.00;;;;5114452;27;20182;-65
2023/10/16 11:12:44;;;;;;;0.10;0.10;;;15.90;99.90;21.40;102130.00;;;;5115443;27;20201;-65
2023/10/16 11:15:48;;;;;;;0.10;0.10;;;16.60;99.90;22.00;102101.00;;;;5115040;27;20531;-65
2023/10/16 11:18:20;;;;;;;0.10;0.10;;;17.30;99.90;21.40;102077.00;;;;5107589;27;20196;-65
2023/10/16 11:24:59;;;;;;;0.10;0.10;;;16.50;99.90;20.60;102112.00;;;;5139324;27;20199;-65
2023/10/16 11:28:21;;;;;;;0.10;0.10;;;16.20;99.90;20.70;102113.00;;;;5123181;27;21017;-65
2023/10/16 11:31:29;;;;;;;0.10;0.10;;;16.60;99.90;21.80;102098.00;;;;5113096;27;20179;-65
2023/10/16 11:34:33;;;;;;;0.10;0.10;;;17.10;99.90;22.20;102075.00;;;;5128705;27;20217;-65
2023/10/16 11:37:43;;;;;;;0.10;0.10;;;17.50;99.90;19.40;102111.00;;;;5113863;27;20526;-65
2023/10/16 11:40:54;;;;;;;0.10;0.10;;;16.80;99.90;20.60;102079.00;;;;5131147;27;20178;-65
2023/10/16 11:43:52;;;;;;;0.10;0.10;;;16.60;99.90;21.70;102066.00;;;;5102746;27;20203;-65
2023/10/16 11:47:18;;;;;;;0.30;0.30;;;17.00;99.90;19.80;102106.00;;;;5110504;27;20202;-65
2023/10/16 11:50:28;;;;;;;0.10;0.10;;;16.60;99.90;20.40;102073.00;;;;5103240;27;20266;-65
2023/10/16 11:53:49;;;;;;;0.10;0.10;;;16.30;99.90;19.70;102090.00;;;;5099071;28;20200;-65
2023/10/16 11:56:27;;;;;;;0.10;0.10;;;16.50;99.90;19.20;102081.00;;;;5109655;27;20181;-58
2023/10/16 11:59:19;;;;;;;0.10;0.10;;;15.70;99.90;21.10;102074.00;;;;5119512;27;20185;-65
2023/10/16 12:02:18;;;;;;;0.10;0.10;;;16.20;99.90;18.60;102106.00;;;;5117132;27;20273;-65
2023/10/16 12:05:07;;;;;;;1.27;1.17;;;16.40;99.90;18.40;102113.00;;;;5118769;27;20178;-65
2023/10/16 12:07:43;;;;;;;0.17;0.17;;;15.70;99.90;19.70;102092.00;;;;5117022;27;20190;-65
2023/10/16 12:10:15;;;;;;;0.70;0.70;;;15.60;99.90;18.80;102100.00;;;;5103320;27;20213;-66
2023/10/16 12:12:44;;;;;;;0.23;0.23;;;15.80;99.90;19.60;102087.00;;;;5117705;27;20734;-66
2023/10/16 12:15:12;;;;;;;1.27;0.43;;;15.60;99.90;19.60;102083.00;;;;5099984;27;20203;-65
2023/10/16 12:17:43;;;;;;;0.10;0.10;;;15.90;99.90;19.90;102077.00;;;;5118222;27;20240;-67
2023/10/16 12:20:10;;;;;;;0.67;0.60;;;15.80;99.90;19.20;102100.00;;;;5115203;27;20647;-67
2023/10/16 12:22:39;;;;;;;0.20;0.20;;;16.00;99.90;19.40;102092.00;;;;5075619;27;20249;-67
2023/10/16 12:25:09;;;;;;;0.10;0.10;;;15.80;99.90;20.60;102072.00;;;;5096988;27;20189;-66
2023/10/16 12:27:39;;;;;;;0.30;0.30;;;16.30;99.90;20.70;102067.00;;;;5093241;27;20184;-67
2023/10/16 12:30:13;;;;;;;0.10;0.10;;;16.60;99.90;21.00;102050.00;;;;5126947;27;20184;-67
2023/10/16 12:33:15;;;;;;;0.63;0.37;;;16.80;99.90;19.30;102079.00;;;;5117586;27;20735;-67
2023/10/16 12:36:07;;;;;;;0.30;0.30;;;16.60;99.90;18.50;102088.00;;;;5113830;27;20654;-67
2023/10/16 12:38:44;;;;;;;0.73;0.73;;;16.20;99.90;20.00;102060.00;;;;5125059;27;20266;-67
2023/10/16 12:41:17;;;;;;;0.10;0.10;;;16.10;99.90;20.10;102029.00;;;;5108202;27;20234;-67
2023/10/16 12:43:47;;;;;;;0.13;0.13;;;16.10;99.90;21.00;102032.00;;;;5116636;27;20194;-67
2023/10/16 12:46:13;;;;;;;0.57;0.57;;;16.40;99.90;20.70;102040.00;;;;5107533;28;20278;-67
2023/10/16 12:48:43;;;;;;;1.23;0.60;;;16.70;99.90;20.40;102051.00;;;;5101895;27;20188;-67
2023/10/16 12:51:10;;;;;;;0.67;0.40;;;16.60;99.90;19.00;102071.00;;;;5095707;27;20629;-67
2023/10/16 12:53:38;;;;;;;0.20;0.20;;;16.30;99.90;18.60;102076.00;;;;5116605;27;20212;-67
2023/10/16 12:56:06;;;;;;;0.20;0.20;;;15.30;99.90;18.70;102052.00;;;;5095152;28;20278;-66
2023/10/16 12:58:41;;;;;;;0.10;0.10;;;15.20;99.90;18.10;102084.00;;;;5106509;27;20661;-66
2023/10/16 13:01:10;;;;;;;6.33;1.07;;;14.90;99.90;18.60;102078.00;;;;5112730;27;20184;-67
2023/10/16 13:03:36;;;;;;;1.80;0.53;;;15.10;99.90;19.30;102064.00;;;;5117501;27;20270;-67
2023/10/16 13:06:05;;;;;;;0.20;0.20;;;15.50;99.90;19.50;102049.00;;;;5097271;27;20246;-67
2023/10/16 13:08:34;;;;;;;1.77;1.67;;;15.60;99.90;19.70;102034.00;;;;5108350;28;20601;-67
2023/10/16 13:11:00;;;;;;;0.30;0.30;;;15.70;99.90;18.50;102066.00;;;;5113914;27;20234;-67
2023/10/16 13:13:26;;;;;;;0.17;0.17;;;15.30;99.90;18.00;102074.00;;;;5107932;27;20210;-67
2023/10/16 13:15:52;;;;;;;0.20;0.20;;;14.90;99.90;17.90;102074.00;;;;5095958;28;20197;-67
2023/10/16 13:18:43;;;;;;;0.43;0.43;;;14.90;99.90;19.20;102042.00;;;;5087092;27;20185;-67
2023/10/16 13:21:17;;;;;;;0.40;0.40;;;15.10;99.90;19.20;102041.00;;;;5092023;27;20223;-66
2023/10/16 13:23:51;;;;;;;18.70;2.93;;;15.30;99.90;20.00;102027.00;;;;5115201;27;20702;-65
2023/10/16 13:26:29;;;;;;;0.20;0.20;;;15.70;99.90;18.60;102047.00;;;;5108546;27;20655;-64
2023/10/16 13:29:01;;;;;;;0.17;0.17;;;15.60;99.90;18.50;102036.00;;;;5095121;27;20291;-64
2023/10/16 13:31:30;;;;;;;15.10;2.73;;;15.20;99.90;17.30;102060.00;;;;5099826;27;20199;-64
2023/10/16 13:33:56;;;;;;;0.10;0.10;;;14.70;99.90;18.70;102050.00;;;;5116788;27;20665;-65
2023/10/16 13:36:35;;;;;;;0.20;0.20;;;14.70;99.90;18.40;102048.00;;;;5098991;27;20188;-64
2023/10/16 13:39:08;;;;;;;0.40;0.40;;;14.80;99.90;18.20;102032.00;;;;5116506;27;20622;-64
2023/10/16 13:41:53;;;;;;;2.00;1.43;;;14.70;99.90;18.40;102066.00;;;;5117549;27;20164;-64
2023/10/16 13:45:11;;;;;;;0.20;0.20;;;14.70;99.90;18.10;102060.00;;;;5117570;27;20180;-64
2023/10/16 13:48:04;;;;;;;0.20;0.20;;;14.70;99.90;18.50;102044.00;;;;5050132;28;20194;-65
2023/10/16 13:50:43;;;;;;;0.87;0.87;;;14.80;99.90;18.50;102038.00;;;;5100308;28;20201;-65
2023/10/16 13:53:10;;;;;;;0.73;0.73;;;14.90;99.90;17.90;102056.00;;;;5115876;27;20239;-65
2023/10/16 13:55:39;;;;;;;0.20;0.20;;;14.80;99.90;17.80;102052.00;;;;5091647;27;20654;-64
2023/10/16 13:58:49;;;;;;;0.10;0.10;;;14.50;99.90;17.70;102063.00;;;;5110793;27;20663;-66
2023/10/16 14:01:16;;;;;;;0.20;0.20;;;14.50;99.90;18.10;102036.00;;;;5117124;27;20658;-64
2023/10/16 14:04:15;;;;;;;0.20;0.20;;;14.60;99.90;18.60;102026.00;;;;5099324;27;20187;-64
2023/10/16 14:06:51;;;;;;;0.37;0.37;;;14.90;99.90;18.20;102030.00;;;;5093479;27;20212;-65
2023/10/16 14:09:28;;;;;;;0.20;0.20;;;14.90;99.90;17.70;102036.00;;;;5116951;27;20180;-64
2023/10/16 14:12:37;;;;;;;0.40;0.40;;;14.60;99.90;17.80;102021.00;;;;5116433;27;20230;-64
2023/10/16 14:15:26;;;;;;;0.20;0.20;;;14.40;99.90;17.10;102026.00;;;;5093167;28;20184;-64
2023/10/16 14:18:29;;;;;;;0.43;0.40;;;14.10;99.90;17.60;101980.00;;;;5097855;27;20182;-64
2023/10/16 14:21:03;;;;;;;0.10;0.10;;;14.30;99.90;18.60;102000.00;;;;5109494;27;20175;-65
2023/10/16 14:23:57;;;;;;;0.17;0.17;;;14.50;99.90;17.80;101965.00;;;;5133394;27;20237;-65
2023/10/16 14:26:34;;;;;;;0.20;0.20;;;14.40;99.90;18.40;101982.00;;;;5095033;28;20196;-65
2023/10/16 14:29:00;;;;;;;0.20;0.20;;;14.50;99.90;18.20;101980.00;;;;5110087;28;20200;-65
2023/10/16 14:31:28;;;;;;;0.13;0.13;;;14.50;99.90;17.10;101982.00;;;;5096936;28;20250;-65
2023/10/16 14:33:58;;;;;;;0.20;0.20;;;14.20;99.90;18.00;101964.00;;;;5115598;28;20199;-65
2023/10/16 14:36:25;;;;;;;0.10;0.10;;;14.20;99.90;17.50;101978.00;;;;5115896;28;20212;-65
2023/10/16 14:38:52;;;;;;;0.27;0.27;;;14.30;99.90;17.30;101961.00;;;;5098557;28;20180;-65
2023/10/16 14:41:19;;;;;;;0.20;0.20;;;14.10;99.90;16.50;101949.00;;;;5115300;28;20702;-65
2023/10/16 14:44:38;;;;;;;0.20;0.20;;;13.70;99.90;17.60;101947.00;;;;5107513;28;20191;-66
2023/10/16 14:47:22;;;;;;;0.30;0.30;;;13.90;99.90;17.60;101947.00;;;;5095950;28;20191;-65
2023/10/16 14:49:59;;;;;;;0.50;0.50;;;14.20;99.90;17.30;101938.00;;;;5113893;28;20183;-64
2023/10/16 14:52:40;;;;;;;0.20;0.20;;;14.10;99.90;17.90;101933.00;;;;5121661;28;20192;-65
2023/10/16 14:55:20;;;;;;;3.40;0.73;;;14.20;99.90;17.40;101947.00;;;;5095398;28;20560;-64
2023/10/16 14:58:10;;;;;;;0.20;0.20;;;14.40;99.90;17.80;101949.00;;;;5129291;28;20179;-65
2023/10/16 15:00:50;;;;;;;0.20;0.20;;;14.30;99.90;17.70;101919.00;;;;5112036;28;20176;-64
2023/10/16 15:03:18;;;;;;;0.43;0.43;;;14.10;99.90;17.40;101945.00;;;;5113171;28;20200;-66
2023/10/16 15:05:45;;;;;;;0.30;0.30;;;14.20;99.90;17.70;101911.00;;;;5126115;28;20233;-63
2023/10/16 15:08:12;;;;;;;0.40;0.40;;;14.10;99.90;17.50;101947.00;;;;5114102;28;20209;-65
2023/10/16 15:10:42;;;;;;;0.20;0.20;;;14.20;99.90;17.40;101939.00;;;;5097962;28;20184;-62
2023/10/16 15:13:17;;;;;;;0.40;0.40;;;14.10;99.90;18.50;101937.00;;;;5129168;28;20201;-67
2023/10/16 15:15:45;;;;;;;0.20;0.20;;;14.40;99.90;18.20;101943.00;;;;5098324;28;20190;-65
2023/10/16 15:18:39;;;;;;;0.20;0.20;;;14.40;99.90;16.60;101952.00;;;;5132878;27;20172;-67
2023/10/16 15:22:02;;;;;;;0.20;0.20;;;14.20;99.90;17.90;101949.00;;;;5111064;27;20187;-65
2023/10/16 15:24:39;;;;;;;0.30;0.30;;;14.10;99.90;17.60;101942.00;;;;5119902;27;20187;-64
2023/10/16 15:27:28;;;;;;;1.20;0.40;;;14.10;99.90;17.80;101939.00;;;;5119289;27;20187;-68
2023/10/16 15:30:12;;;;;;;0.67;0.67;;;14.10;99.90;18.20;101952.00;;;;5111921;27;20554;-68
2023/10/16 15:33:23;;;;;;;0.40;0.40;;;14.20;99.90;17.20;101949.00;;;;5117328;27;20239;-69
2023/10/16 15:38:39;;;;;;;1.23;1.23;;;13.80;99.90;17.80;101934.00;;;;5119735;27;20282;-66
2023/10/16 15:41:09;;;;;;;0.20;0.20;;;13.80;99.90;17.20;101939.00;;;;5118818;27;20180;-68
2023/10/16 15:44:19;;;;;;;0.27;0.27;;;13.90;99.90;17.10;101900.00;;;;5114203;27;20644;-69
2023/10/16 15:47:11;;;;;;;0.20;0.20;;;13.70;99.90;17.50;101914.00;;;;5096827;27;20195;-69
2023/10/16 15:50:00;;;;;;;0.37;0.37;;;13.80;99.90;18.10;101918.00;;;;5109350;27;20248;-65
2023/10/16 15:52:28;;;;;;;0.20;0.20;;;14.10;99.90;17.10;101932.00;;;;5127221;27;20212;-68
2023/10/16 15:54:59;;;;;;;0.40;0.40;;;13.90;99.90;16.70;101906.00;;;;5099765;27;20187;-66
2023/10/16 15:58:12;;;;;;;0.30;0.30;;;13.60;99.90;17.50;101908.00;;;;5101614;27;20237;-69
2023/10/16 16:01:30;;;;;;;0.20;0.20;;;13.80;99.90;17.30;101895.00;;;;5113288;27;20183;-65
2023/10/16 16:04:07;;;;;;;0.20;0.20;;;13.70;99.90;17.50;101895.00;;;;5099278;27;20211;-68
2023/10/16 16:06:49;;;;;;;0.20;0.20;;;13.70;99.90;17.60;101879.00;;;;5108490;27;20187;-68
2023/10/16 16:10:10;;;;;;;0.80;0.80;;;13.80;99.90;17.10;101888.00;;;;5083853;28;20183;-65
2023/10/16 16:13:03;;;;;;;0.20;0.20;;;13.80;99.90;17.70;101879.00;;;;5115811;27;20203;-66
2023/10/16 16:15:29;;;;;;;22.67;7.40;;;13.80;99.90;17.70;101874.00;;;;5135610;27;20188;-64
2023/10/16 16:18:45;;;;;;;0.20;0.20;;;13.90;99.90;17.50;101886.00;;;;5117104;27;20182;-67
2023/10/16 16:21:49;;;;;;;0.70;0.70;;;13.80;99.90;17.60;101891.00;;;;5107078;28;20208;-65
2023/10/16 16:24:24;;;;;;;0.30;0.30;;;13.80;99.90;17.30;101876.00;;;;5097193;27;20225;-69
2023/10/16 16:26:59;;;;;;;0.33;0.33;;;13.60;99.90;17.50;101879.00;;;;5104632;27;20186;-65
2023/10/16 16:29:32;;;;;;;0.30;0.30;;;13.70;99.90;17.80;101878.00;;;;5117536;27;20244;-66
2023/10/16 16:31:58;;;;;;;0.30;0.30;;;13.80;99.90;18.00;101878.00;;;;5099332;27;20253;-66
2023/10/16 16:35:19;;;;;;;0.30;0.30;;;13.90;99.90;17.10;101891.00;;;;5116752;27;20607;-66
2023/10/16 16:38:18;;;;;;;0.40;0.40;;;13.70;99.90;17.50;101879.00;;;;5096660;28;20556;-66
2023/10/16 16:41:40;;;;;;;0.77;0.77;;;13.60;99.90;17.80;101874.00;;;;5094862;27;20202;-66
2023/10/16 16:45:02;;;;;;;0.20;0.20;;;13.60;99.90;17.60;101873.00;;;;5101103;27;20208;-67
2023/10/16 16:48:13;;;;;;;0.20;0.20;;;13.60;99.90;17.10;101832.00;;;;5113977;27;20224;-66
2023/10/16 16:51:27;;;;;;;0.73;0.73;;;13.60;99.90;17.10;101844.00;;;;5129282;27;20187;-66
2023/10/16 16:53:58;;;;;;;0.20;0.20;;;13.40;99.90;16.90;101847.00;;;;5113935;27;20648;-66
2023/10/16 16:57:03;;;;;;;0.30;0.30;;;13.30;99.90;16.30;101835.00;;;;5116496;27;20187;-66
2023/10/16 16:59:35;;;;;;;0.20;0.20;;;13.20;99.90;16.80;101800.00;;;;5134950;27;20261;-66
2023/10/16 17:02:29;;;;;;;0.20;0.20;;;13.20;99.90;17.10;101841.00;;;;5094516;27;20641;-66
2023/10/16 17:05:10;;;;;;;0.30;0.30;;;13.30;99.90;16.60;101803.00;;;;5106176;28;20277;-67
2023/10/16 17:07:54;;;;;;;0.30;0.30;;;13.30;99.90;17.00;101828.00;;;;5104924;27;20177;-66
2023/10/16 17:11:00;;;;;;;1.03;0.60;;;13.30;99.90;17.00;101825.00;;;;5115495;27;20182;-66
2023/10/16 17:14:04;;;;;;;0.23;0.23;;;13.20;99.90;17.10;101808.00;;;;5131548;27;20204;-66
2023/10/16 17:17:06;;;;;;;0.40;0.40;;;13.30;99.90;16.90;101844.00;;;;5114019;27;20193;-66
2023/10/16 17:20:12;;;;;;;0.20;0.20;;;13.30;99.90;16.20;101818.00;;;;5095787;28;20192;-66
2023/10/16 17:23:05;;;;;;;0.20;0.20;;;13.00;99.90;16.40;101813.00;;;;5113145;27;20215;-65
2023/10/16 17:26:32;;;;;;;0.33;0.33;;;12.90;99.90;16.50;101825.00;;;;5113981;27;20703;-65
2023/10/16 17:29:48;;;;;;;0.20;0.20;;;12.90;99.90;16.10;101824.00;;;;5121534;27;20204;-66
2023/10/16 17:32:36;;;;;;;0.20;0.20;;;12.90;99.90;16.40;101816.00;;;;5095730;28;20254;-66
2023/10/16 17:35:49;;;;;;;0.20;0.20;;;12.80;99.90;16.90;101834.00;;;;5114546;27;20615;-66
2023/10/16 17:38:24;;;;;;;0.30;0.30;;;12.80;99.90;16.90;101838.00;;;;5102564;27;20703;-66
2023/10/16 17:41:25;;;;;;;0.20;0.20;;;13.00;99.90;16.10;101794.00;;;;5090519;27;20189;-66
2023/10/16 17:44:47;;;;;;;2.33;0.60;;;12.80;99.90;15.20;101812.00;;;;5109106;27;20190;-66
2023/10/16 17:47:56;;;;;;;0.20;0.20;;;12.50;99.90;16.00;101811.00;;;;5114502;27;20177;-65
2023/10/16 17:51:20;;;;;;;1.70;1.13;;;12.40;99.90;15.90;101814.00;;;;5091022;27;20618;-66
2023/10/16 17:54:22;;;;;;;0.80;0.80;;;12.60;99.90;16.50;101816.00;;;;5098736;28;20184;-66
2023/10/16 17:57:25;;;;;;;1.77;0.67;;;12.70;99.90;16.40;101829.00;;;;5125343;27;20187;-66
2023/10/16 18:00:27;;;;;;;0.40;0.40;;;12.90;99.90;15.90;101812.00;;;;4174340;28;10000656;-65
2023/10/16 18:03:45;;;;;;;0.90;0.90;;;12.70;99.90;16.60;101809.00;;;;5045861;28;20186;-65
2023/10/16 18:06:40;;;;;;;1.03;1.03;;;12.70;99.90;16.50;101797.00;;;;5028459;28;20190;-66
2023/10/16 18:09:52;;;;;;;0.40;0.40;;;12.70;99.90;16.60;101794.00;;;;5037988;28;20191;-66
2023/10/16 18:12:27;;;;;;;1.53;0.43;;;12.70;99.90;15.80;101815.00;;;;4453544;28;10001220;-66
2023/10/16 18:15:21;;;;;;;0.30;0.30;;;12.60;99.90;15.40;101799.00;;;;5052259;28;20207;-66
2023/10/16 18:18:23;;;;;;;0.30;0.30;;;12.30;99.90;14.80;101783.00;;;;5051191;28;20680;-65
2023/10/16 18:24:22;;;;;;;0.20;0.20;;;12.00;99.90;15.40;101800.00;;;;5051751;28;20198;-67
2023/10/16 18:27:18;;;;;;;0.30;0.30;;;12.20;99.90;15.50;101790.00;;;;5051601;28;20270;-67
2023/10/16 18:30:07;;;;;;;0.77;0.77;;;12.30;99.90;15.50;101787.00;;;;5036050;28;20188;-67
2023/10/16 18:32:57;;;;;;;5.63;3.47;;;12.10;99.90;15.00;101743.00;;;;5045030;28;20683;-66
2023/10/16 18:36:18;;;;;;;0.30;0.30;;;12.00;99.90;14.70;101767.00;;;;5035170;28;20567;-66
2023/10/16 18:39:22;;;;;;;0.30;0.30;;;11.90;99.90;14.60;101759.00;;;;5026247;28;20196;-66
2023/10/16 18:42:09;;;;;;;0.20;0.20;;;11.70;99.90;15.40;101744.00;;;;5031291;28;20667;-66
2023/10/16 18:44:55;;;;;;;0.30;0.30;;;11.90;99.90;15.40;101784.00;;;;5035326;28;20197;-67
2023/10/16 18:47:41;;;;;;;0.30;0.30;;;12.00;99.90;14.90;101777.00;;;;5029679;28;20209;-66
2023/10/16 18:50:07;;;;;;;0.20;0.20;;;12.00;99.90;14.80;101765.00;;;;5028010;28;20201;-67
2023/10/16 18:52:51;;;;;;;0.30;0.30;;;11.90;99.90;14.50;101758.00;;;;5051383;28;20651;-67
2023/10/16 18:55:17;;;;;;;0.20;0.20;;;11.70;99.90;14.90;101762.00;;;;5054982;28;20199;-67
2023/10/16 18:57:44;;;;;;;0.60;0.60;;;11.70;99.90;15.20;101767.00;;;;5056298;28;20178;-66
2023/10/16 19:00:32;;;;;;;0.30;0.30;;;11.80;99.90;15.10;101778.00;;;;5038598;28;20190;-66
2023/10/16 19:03:20;;;;;;;0.20;0.20;;;11.80;99.90;14.90;101785.00;;;;4152123;28;10001006;-67
2023/10/16 19:07:19;;;;;;;0.23;0.23;;;11.90;99.90;14.70;101773.00;;;;5056790;28;20706;-66
2023/10/16 19:10:28;;;;;;;0.20;0.20;;;11.90;99.90;15.00;101765.00;;;;5049341;28;20208;-66
2023/10/16 19:13:50;;;;;;;1.27;1.07;;;12.00;99.90;14.30;101751.00;;;;5038957;28;20834;-67
2023/10/16 19:17:11;;;;;;;0.20;0.20;;;11.80;99.90;14.50;101753.00;;;;5071413;28;20231;-67
2023/10/16 19:20:08;;;;;;;0.27;0.27;;;11.70;99.90;15.00;101757.00;;;;5055057;28;20308;-67
2023/10/16 19:27:05;;;;;;;1.67;1.17;;;11.50;99.90;13.90;101709.00;;;;5054543;28;20195;-66
2023/10/16 19:30:26;;;;;;;0.50;0.50;;;11.40;99.90;13.50;101733.00;;;;5058922;28;20188;-66
2023/10/16 19:33:31;;;;;;;0.67;0.67;;;11.40;99.90;14.00;101729.00;;;;5052518;28;20222;-67
2023/10/16 19:36:46;;;;;;;0.60;0.60;;;11.40;99.90;14.70;101752.00;;;;5026011;28;20198;-66
2023/10/16 19:39:48;;;;;;;0.37;0.37;;;11.50;99.90;14.50;101743.00;;;;5045124;28;20609;-67
2023/10/16 19:42:54;;;;;;;0.57;0.57;;;11.60;99.90;13.70;101737.00;;;;5053399;28;20178;-66
2023/10/16 19:46:13;;;;;;;0.40;0.40;;;11.40;99.90;13.60;101744.00;;;;5034563;28;20554;-67
2023/10/16 19:49:32;;;;;;;0.50;0.50;;;11.20;99.90;14.60;101750.00;;;;5033761;28;20202;-66
2023/10/16 19:51:58;;;;;;;1.07;0.97;;;11.30;99.90;14.40;101755.00;;;;5049439;28;20203;-65
2023/10/16 19:54:50;;;;;;;0.30;0.30;;;11.50;99.90;14.30;101745.00;;;;5037636;28;20340;-66
2023/10/16 19:57:44;;;;;;;0.30;0.30;;;11.50;99.90;14.90;101755.00;;;;5053459;28;20767;-66
2023/10/16 20:00:39;;;;;;;0.83;0.83;;;11.60;99.90;14.90;101739.00;;;;5051022;28;20209;-66
2023/10/16 20:03:48;;;;;;;0.20;0.20;;;11.70;99.90;14.70;101772.00;;;;5039830;28;20227;-66
2023/10/16 20:06:39;;;;;;;0.30;0.30;;;11.60;99.90;15.10;101776.00;;;;5047907;28;20183;-66
2023/10/16 20:09:40;;;;;;;0.23;0.23;;;11.80;99.90;14.40;101783.00;;;;4957860;28;20750;-66
2023/10/16 20:12:35;;;;;;;1.07;0.60;;;11.60;99.90;14.40;101742.00;;;;4970196;28;20235;-66
2023/10/16 20:15:39;;;;;;;0.40;0.40;;;11.60;99.90;14.10;101781.00;;;;5026353;28;20647;-65